Le Roy, Illinois
Current Conditions -  °F | °C
As of 12:40 AM on Wednesday 28 Jan 2015 (Local Time) from KBMI Reporting Station
Scattered Clouds Scattered Clouds  
Wind Chill: 21°   Ceiling: Unl
Heat Index: 27°   Visibility: 9mi
Dew Point: 25°   Wind: 5mph
Humidity: 93%   Direction: 130°SE
Pressure: 30.26"   Gusts: NA
Location:  40.35°N, 88.76°W
Report Text: KBMI 280640Z AUTO 13004KT 9SM SCT011 M03/M04 A3026 RMK AO2
Loading
Personal Weather Stations






























Interactive Weather Map New forecast layout! Learn more

10-Day Weather Forecast

Advertisements
Track Severe Weather on mobile